Terminal Aerodrome Forecast
Issued by NWS

Home | Current Version | Previous Version | Text Only | Print | Product List | Glossary On
Versions: 1 2 3 4 5 6 7 8 9 10 11 12 13 14 15 16 17 18 19 20 21 22 23 24
000
FTUS46 KSEW 191125
TAFOLM
TAF
KOLM 191125Z 1912/2012 00000KT 5SM -RA BKN026 OVC035
     FM191600 18005KT 3SM -RA BR SCT007 OVC012
     FM191900 19015G22KT 5SM -SHRA BKN025 BKN050
     FM200300 20007KT P6SM -SHRA SCT025 OVC040
     FM200600 18004KT 4SM BR VCSH SCT025 BKN040=

USA.gov is the U.S. government's official web portal to all federal, state and local government web resources and services.